sensor_id;sensor_type;location;lat;lon;timestamp;pressure;altitude;pressure_sealevel;temperature;humidity
39209;BME280;24929;51.982;4.664;2022-11-20T00:00:37;78129.38;;;-143.36;nan
39209;BME280;24929;51.982;4.664;2022-11-20T00:03:03;78129.38;;;-143.36;nan
39209;BME280;24929;51.982;4.664;2022-11-20T00:05:28;78121.34;;;-143.36;nan
39209;BME280;24929;51.982;4.664;2022-11-20T00:07:53;78219.72;;;-143.36;nan
39209;BME280;24929;51.982;4.664;2022-11-20T00:10:19;78159.47;;;-143.36;nan
39209;BME280;24929;51.982;4.664;2022-11-20T00:12:44;78101.25;;;-143.36;nan
39209;BME280;24929;51.982;4.664;2022-11-20T00:15:09;78111.31;;;-143.36;nan
39209;BME280;24929;51.982;4.664;2022-11-20T00:17:35;78167.50;;;-143.36;nan
39209;BME280;24929;51.982;4.664;2022-11-20T00:20:00;78163.50;;;-143.36;nan
39209;BME280;24929;51.982;4.664;2022-11-20T00:22:26;78125.34;;;-143.36;nan
39209;BME280;24929;51.982;4.664;2022-11-20T00:24:51;78139.41;;;-143.36;nan
39209;BME280;24929;51.982;4.664;2022-11-20T00:27:16;78133.38;;;-143.36;nan
39209;BME280;24929;51.982;4.664;2022-11-20T00:29:42;78181.56;;;-143.36;nan
39209;BME280;24929;51.982;4.664;2022-11-20T00:32:07;78133.38;;;-143.36;nan
39209;BME280;24929;51.982;4.664;2022-11-20T00:34:32;78115.31;;;-143.36;nan
39209;BME280;24929;51.982;4.664;2022-11-20T00:36:58;78125.34;;;-143.36;nan
39209;BME280;24929;51.982;4.664;2022-11-20T00:39:23;78111.31;;;-143.36;nan
39209;BME280;24929;51.982;4.664;2022-11-20T00:41:48;78113.31;;;-143.36;nan
39209;BME280;24929;51.982;4.664;2022-11-20T00:44:14;78111.31;;;-143.36;nan
39209;BME280;24929;51.982;4.664;2022-11-20T00:46:39;78091.22;;;-143.36;nan
39209;BME280;24929;51.982;4.664;2022-11-20T00:49:04;78085.19;;;-143.36;nan
39209;BME280;24929;51.982;4.664;2022-11-20T00:51:30;78099.25;;;-143.36;nan
39209;BME280;24929;51.982;4.664;2022-11-20T00:53:56;78105.28;;;-143.36;nan
39209;BME280;24929;51.982;4.664;2022-11-20T00:56:22;78165.50;;;-143.36;nan
39209;BME280;24929;51.982;4.664;2022-11-20T00:58:48;78135.41;;;-143.36;nan
39209;BME280;24929;51.982;4.664;2022-11-20T01:01:19;78081.19;;;-143.36;nan
39209;BME280;24929;51.982;4.664;2022-11-20T01:03:48;78051.06;;;-143.36;nan
39209;BME280;24929;51.982;4.664;2022-11-20T01:08:43;78077.19;;;-143.36;nan
39209;BME280;24929;51.982;4.664;2022-11-20T01:11:12;78053.09;;;-143.36;nan
39209;BME280;24929;51.982;4.664;2022-11-20T01:13:38;78069.16;;;-143.36;nan
39209;BME280;24929;51.982;4.664;2022-11-20T01:16:13;78059.09;;;-143.36;nan
39209;BME280;24929;51.982;4.664;2022-11-20T01:18:41;78065.13;;;-143.36;nan
39209;BME280;24929;51.982;4.664;2022-11-20T01:21:10;78099.25;;;-143.36;nan
39209;BME280;24929;51.982;4.664;2022-11-20T01:23:39;78071.16;;;-143.36;nan
39209;BME280;24929;51.982;4.664;2022-11-20T01:26:07;78041.03;;;-143.36;nan
39209;BME280;24929;51.982;4.664;2022-11-20T01:28:33;78065.13;;;-143.36;nan
39209;BME280;24929;51.982;4.664;2022-11-20T01:30:59;78079.19;;;-143.36;nan
39209;BME280;24929;51.982;4.664;2022-11-20T01:33:24;78091.22;;;-143.36;nan
39209;BME280;24929;51.982;4.664;2022-11-20T01:35:50;78117.31;;;-143.36;nan
39209;BME280;24929;51.982;4.664;2022-11-20T01:38:16;78077.19;;;-143.36;nan
39209;BME280;24929;51.982;4.664;2022-11-20T01:40:44;78071.16;;;-143.36;nan
39209;BME280;24929;51.982;4.664;2022-11-20T01:43:19;78043.03;;;-143.36;nan
39209;BME280;24929;51.982;4.664;2022-11-20T01:46:18;78033.00;;;-143.36;nan
39209;BME280;24929;51.982;4.664;2022-11-20T01:53:47;78105.28;;;-143.36;nan
39209;BME280;24929;51.982;4.664;2022-11-20T01:56:13;78117.31;;;-143.36;nan
39209;BME280;24929;51.982;4.664;2022-11-20T01:58:44;78107.28;;;-143.36;nan
39209;BME280;24929;51.982;4.664;2022-11-20T02:01:12;78113.31;;;-143.36;nan
39209;BME280;24929;51.982;4.664;2022-11-20T02:03:38;78133.38;;;-143.36;nan
39209;BME280;24929;51.982;4.664;2022-11-20T02:06:11;78069.16;;;-143.36;nan
39209;BME280;24929;51.982;4.664;2022-11-20T02:08:38;78119.34;;;-143.36;nan
39209;BME280;24929;51.982;4.664;2022-11-20T02:11:03;78123.34;;;-143.36;nan
39209;BME280;24929;51.982;4.664;2022-11-20T02:13:29;78147.44;;;-143.36;nan
39209;BME280;24929;51.982;4.664;2022-11-20T02:16:25;78063.13;;;-143.36;nan
39209;BME280;24929;51.982;4.664;2022-11-20T02:18:54;78149.44;;;-143.36;nan
39209;BME280;24929;51.982;4.664;2022-11-20T02:21:53;78087.22;;;-143.36;nan
39209;BME280;24929;51.982;4.664;2022-11-20T02:24:22;78109.28;;;-143.36;nan
39209;BME280;24929;51.982;4.664;2022-11-20T02:29:46;78103.28;;;-143.36;nan
39209;BME280;24929;51.982;4.664;2022-11-20T02:32:19;78103.28;;;-143.36;nan
39209;BME280;24929;51.982;4.664;2022-11-20T02:34:45;78197.63;;;-143.36;nan
39209;BME280;24929;51.982;4.664;2022-11-20T02:37:10;78151.44;;;-143.36;nan
39209;BME280;24929;51.982;4.664;2022-11-20T02:39:36;78147.44;;;-143.36;nan
39209;BME280;24929;51.982;4.664;2022-11-20T02:42:02;78147.44;;;-143.36;nan
39209;BME280;24929;51.982;4.664;2022-11-20T02:44:27;78149.44;;;-143.36;nan
39209;BME280;24929;51.982;4.664;2022-11-20T02:46:53;78137.41;;;-143.36;nan
39209;BME280;24929;51.982;4.664;2022-11-20T02:49:18;78147.44;;;-143.36;nan
39209;BME280;24929;51.982;4.664;2022-11-20T02:51:43;78149.44;;;-143.36;nan
39209;BME280;24929;51.982;4.664;2022-11-20T02:54:09;78181.56;;;-143.36;nan
39209;BME280;24929;51.982;4.664;2022-11-20T02:56:34;78203.66;;;-143.36;nan
39209;BME280;24929;51.982;4.664;2022-11-20T02:59:02;78197.63;;;-143.36;nan
39209;BME280;24929;51.982;4.664;2022-11-20T03:01:27;78193.59;;;-143.36;nan
39209;BME280;24929;51.982;4.664;2022-11-20T03:03:53;78187.59;;;-143.36;nan
39209;BME280;24929;51.982;4.664;2022-11-20T03:06:19;78203.66;;;-143.36;nan
39209;BME280;24929;51.982;4.664;2022-11-20T03:08:45;78215.69;;;-143.36;nan
39209;BME280;24929;51.982;4.664;2022-11-20T03:11:10;78173.53;;;-143.36;nan
39209;BME280;24929;51.982;4.664;2022-11-20T03:13:35;78175.53;;;-143.36;nan
39209;BME280;24929;51.982;4.664;2022-11-20T03:16:21;78071.16;;;-143.36;nan
39209;BME280;24929;51.982;4.664;2022-11-20T03:18:48;78117.31;;;-143.36;nan
39209;BME280;24929;51.982;4.664;2022-11-20T03:21:14;78173.53;;;-143.36;nan
39209;BME280;24929;51.982;4.664;2022-11-20T03:23:40;78189.59;;;-143.36;nan
39209;BME280;24929;51.982;4.664;2022-11-20T03:26:17;78085.19;;;-143.36;nan
39209;BME280;24929;51.982;4.664;2022-11-20T03:28:52;78079.19;;;-143.36;nan
39209;BME280;24929;51.982;4.664;2022-11-20T03:31:20;78115.31;;;-143.36;nan
39209;BME280;24929;51.982;4.664;2022-11-20T03:33:45;78153.47;;;-143.36;nan
39209;BME280;24929;51.982;4.664;2022-11-20T03:36:13;78111.31;;;-143.36;nan
39209;BME280;24929;51.982;4.664;2022-11-20T03:38:40;78113.31;;;-143.36;nan
39209;BME280;24929;51.982;4.664;2022-11-20T03:41:11;78115.31;;;-143.36;nan
39209;BME280;24929;51.982;4.664;2022-11-20T03:43:36;78187.59;;;-143.36;nan
39209;BME280;24929;51.982;4.664;2022-11-20T03:46:02;78157.47;;;-143.36;nan
39209;BME280;24929;51.982;4.664;2022-11-20T03:48:28;78133.38;;;-143.36;nan
39209;BME280;24929;51.982;4.664;2022-11-20T03:51:09;78113.31;;;-143.36;nan
39209;BME280;24929;51.982;4.664;2022-11-20T03:53:34;78195.63;;;-143.36;nan
39209;BME280;24929;51.982;4.664;2022-11-20T03:56:00;78185.59;;;-143.36;nan
39209;BME280;24929;51.982;4.664;2022-11-20T03:58:25;78179.56;;;-143.36;nan
39209;BME280;24929;51.982;4.664;2022-11-20T04:00:50;78179.56;;;-143.36;nan
39209;BME280;24929;51.982;4.664;2022-11-20T04:03:16;78179.56;;;-143.36;nan
39209;BME280;24929;51.982;4.664;2022-11-20T04:05:41;78145.44;;;-143.36;nan
39209;BME280;24929;51.982;4.664;2022-11-20T04:08:06;78127.38;;;-143.36;nan
39209;BME280;24929;51.982;4.664;2022-11-20T04:10:32;78111.31;;;-143.36;nan
39209;BME280;24929;51.982;4.664;2022-11-20T04:12:57;78117.31;;;-143.36;nan
39209;BME280;24929;51.982;4.664;2022-11-20T04:15:22;78125.34;;;-143.36;nan
39209;BME280;24929;51.982;4.664;2022-11-20T04:17:48;78143.41;;;-143.36;nan
39209;BME280;24929;51.982;4.664;2022-11-20T04:20:13;78115.31;;;-143.36;nan
39209;BME280;24929;51.982;4.664;2022-11-20T04:22:39;78127.38;;;-143.36;nan
39209;BME280;24929;51.982;4.664;2022-11-20T04:25:05;78171.53;;;-143.36;nan
39209;BME280;24929;51.982;4.664;2022-11-20T04:27:30;78181.56;;;-143.36;nan
39209;BME280;24929;51.982;4.664;2022-11-20T04:29:56;78167.50;;;-143.36;nan
39209;BME280;24929;51.982;4.664;2022-11-20T04:32:21;78149.44;;;-143.36;nan
39209;BME280;24929;51.982;4.664;2022-11-20T04:34:46;78123.34;;;-143.36;nan
39209;BME280;24929;51.982;4.664;2022-11-20T04:37:12;78099.25;;;-143.36;nan
39209;BME280;24929;51.982;4.664;2022-11-20T04:39:37;78129.38;;;-143.36;nan
39209;BME280;24929;51.982;4.664;2022-11-20T04:42:02;78127.38;;;-143.36;nan
39209;BME280;24929;51.982;4.664;2022-11-20T04:44:46;78111.31;;;-143.36;nan
39209;BME280;24929;51.982;4.664;2022-11-20T04:47:12;78149.44;;;-143.36;nan
39209;BME280;24929;51.982;4.664;2022-11-20T04:49:37;78133.38;;;-143.36;nan
39209;BME280;24929;51.982;4.664;2022-11-20T04:52:02;78143.41;;;-143.36;nan
39209;BME280;24929;51.982;4.664;2022-11-20T04:54:28;78105.28;;;-143.36;nan
39209;BME280;24929;51.982;4.664;2022-11-20T04:56:53;78133.38;;;-143.36;nan
39209;BME280;24929;51.982;4.664;2022-11-20T04:59:18;78123.34;;;-143.36;nan
39209;BME280;24929;51.982;4.664;2022-11-20T05:01:44;78113.31;;;-143.36;nan
39209;BME280;24929;51.982;4.664;2022-11-20T05:04:09;78103.28;;;-143.36;nan
39209;BME280;24929;51.982;4.664;2022-11-20T05:06:34;78113.31;;;-143.36;nan
39209;BME280;24929;51.982;4.664;2022-11-20T05:09:00;78107.28;;;-143.36;nan
39209;BME280;24929;51.982;4.664;2022-11-20T05:11:26;78119.34;;;-143.36;nan
39209;BME280;24929;51.982;4.664;2022-11-20T05:13:54;78137.41;;;-143.36;nan
39209;BME280;24929;51.982;4.664;2022-11-20T05:16:22;78111.31;;;-143.36;nan
39209;BME280;24929;51.982;4.664;2022-11-20T05:18:47;78127.38;;;-143.36;nan
39209;BME280;24929;51.982;4.664;2022-11-20T05:21:14;78103.28;;;-143.36;nan
39209;BME280;24929;51.982;4.664;2022-11-20T05:23:40;78097.25;;;-143.36;nan
39209;BME280;24929;51.982;4.664;2022-11-20T05:26:07;78103.28;;;-143.36;nan
39209;BME280;24929;51.982;4.664;2022-11-20T05:28:33;78125.34;;;-143.36;nan
39209;BME280;24929;51.982;4.664;2022-11-20T05:31:11;78109.28;;;-143.36;nan
39209;BME280;24929;51.982;4.664;2022-11-20T05:33:40;78105.28;;;-143.36;nan
39209;BME280;24929;51.982;4.664;2022-11-20T05:36:06;78157.47;;;-143.36;nan
39209;BME280;24929;51.982;4.664;2022-11-20T05:38:32;78165.50;;;-143.36;nan
39209;BME280;24929;51.982;4.664;2022-11-20T05:41:14;78103.28;;;-143.36;nan
39209;BME280;24929;51.982;4.664;2022-11-20T05:43:42;78095.25;;;-143.36;nan
39209;BME280;24929;51.982;4.664;2022-11-20T05:46:09;78125.34;;;-143.36;nan
39209;BME280;24929;51.982;4.664;2022-11-20T05:48:35;78141.41;;;-143.36;nan
39209;BME280;24929;51.982;4.664;2022-11-20T05:51:03;78115.31;;;-143.36;nan
39209;BME280;24929;51.982;4.664;2022-11-20T05:53:28;78163.50;;;-143.36;nan
39209;BME280;24929;51.982;4.664;2022-11-20T05:58:23;78115.31;;;-143.36;nan
39209;BME280;24929;51.982;4.664;2022-11-20T06:00:48;78119.34;;;-143.36;nan
39209;BME280;24929;51.982;4.664;2022-11-20T06:03:13;78109.28;;;-143.36;nan
39209;BME280;24929;51.982;4.664;2022-11-20T06:05:39;78079.19;;;-143.36;nan
39209;BME280;24929;51.982;4.664;2022-11-20T06:08:04;78077.19;;;-143.36;nan
39209;BME280;24929;51.982;4.664;2022-11-20T06:10:29;78081.19;;;-143.36;nan
39209;BME280;24929;51.982;4.664;2022-11-20T06:12:57;78010.94;;;-143.36;nan
39209;BME280;24929;51.982;4.664;2022-11-20T06:15:22;78081.19;;;-143.36;nan
39209;BME280;24929;51.982;4.664;2022-11-20T06:17:52;78037.03;;;-143.36;nan
39209;BME280;24929;51.982;4.664;2022-11-20T06:20:17;78095.25;;;-143.36;nan
39209;BME280;24929;51.982;4.664;2022-11-20T06:22:43;78075.16;;;-143.36;nan
39209;BME280;24929;51.982;4.664;2022-11-20T06:25:08;78083.19;;;-143.36;nan
39209;BME280;24929;51.982;4.664;2022-11-20T06:27:33;78069.16;;;-143.36;nan
39209;BME280;24929;51.982;4.664;2022-11-20T06:40:40;78018.97;;;-143.36;nan
39209;BME280;24929;51.982;4.664;2022-11-20T06:43:06;78073.16;;;-143.36;nan
39209;BME280;24929;51.982;4.664;2022-11-20T06:45:31;78083.19;;;-143.36;nan
39209;BME280;24929;51.982;4.664;2022-11-20T06:47:57;78035.03;;;-143.36;nan
39209;BME280;24929;51.982;4.664;2022-11-20T06:50:23;78016.94;;;-143.36;nan
39209;BME280;24929;51.982;4.664;2022-11-20T06:52:48;78029.00;;;-143.36;nan
39209;BME280;24929;51.982;4.664;2022-11-20T06:55:14;78045.06;;;-143.36;nan
39209;BME280;24929;51.982;4.664;2022-11-20T06:57:39;78053.09;;;-143.36;nan
39209;BME280;24929;51.982;4.664;2022-11-20T07:00:05;78037.03;;;-143.36;nan
39209;BME280;24929;51.982;4.664;2022-11-20T07:02:31;78008.91;;;-143.36;nan
39209;BME280;24929;51.982;4.664;2022-11-20T07:04:56;78039.03;;;-143.36;nan
39209;BME280;24929;51.982;4.664;2022-11-20T07:07:22;78055.09;;;-143.36;nan
39209;BME280;24929;51.982;4.664;2022-11-20T07:09:47;77968.78;;;-143.36;nan
39209;BME280;24929;51.982;4.664;2022-11-20T07:12:12;77974.78;;;-143.36;nan
39209;BME280;24929;51.982;4.664;2022-11-20T07:14:38;77998.88;;;-143.36;nan
39209;BME280;24929;51.982;4.664;2022-11-20T07:17:03;78000.88;;;-143.36;nan
39209;BME280;24929;51.982;4.664;2022-11-20T07:19:28;77982.81;;;-143.36;nan
39209;BME280;24929;51.982;4.664;2022-11-20T07:21:54;77992.84;;;-143.36;nan
39209;BME280;24929;51.982;4.664;2022-11-20T07:24:19;78006.91;;;-143.36;nan
39209;BME280;24929;51.982;4.664;2022-11-20T07:26:48;77968.78;;;-143.36;nan
39209;BME280;24929;51.982;4.664;2022-11-20T07:29:14;77998.88;;;-143.36;nan
39209;BME280;24929;51.982;4.664;2022-11-20T07:31:41;78024.97;;;-143.36;nan
39209;BME280;24929;51.982;4.664;2022-11-20T07:34:06;78059.09;;;-143.36;nan
39209;BME280;24929;51.982;4.664;2022-11-20T07:36:31;78043.03;;;-143.36;nan
39209;BME280;24929;51.982;4.664;2022-11-20T07:38:56;78014.94;;;-143.36;nan
39209;BME280;24929;51.982;4.664;2022-11-20T07:41:22;77996.88;;;-143.36;nan
39209;BME280;24929;51.982;4.664;2022-11-20T07:43:47;78002.91;;;-143.36;nan
39209;BME280;24929;51.982;4.664;2022-11-20T07:49:34;77974.78;;;-143.36;nan
39209;BME280;24929;51.982;4.664;2022-11-20T07:52:00;78008.91;;;-143.36;nan
39209;BME280;24929;51.982;4.664;2022-11-20T07:54:25;77988.84;;;-143.36;nan
39209;BME280;24929;51.982;4.664;2022-11-20T07:56:50;77972.78;;;-143.36;nan
39209;BME280;24929;51.982;4.664;2022-11-20T07:59:16;77954.72;;;-143.36;nan
39209;BME280;24929;51.982;4.664;2022-11-20T08:01:42;77944.69;;;-143.36;nan
39209;BME280;24929;51.982;4.664;2022-11-20T08:04:10;77926.63;;;-143.36;nan
39209;BME280;24929;51.982;4.664;2022-11-20T08:06:36;77960.75;;;-143.36;nan
39209;BME280;24929;51.982;4.664;2022-11-20T08:09:02;77980.81;;;-143.36;nan
39209;BME280;24929;51.982;4.664;2022-11-20T08:11:28;77924.59;;;-143.36;nan
39209;BME280;24929;51.982;4.664;2022-11-20T08:14:12;77908.56;;;-143.36;nan
39209;BME280;24929;51.982;4.664;2022-11-20T08:16:46;77876.44;;;-143.36;nan
39209;BME280;24929;51.982;4.664;2022-11-20T08:19:13;77812.19;;;-143.36;nan
39209;BME280;24929;51.982;4.664;2022-11-20T08:21:39;77846.31;;;-143.36;nan
39209;BME280;24929;51.982;4.664;2022-11-20T08:24:05;77834.28;;;-143.36;nan
39209;BME280;24929;51.982;4.664;2022-11-20T08:26:31;77864.38;;;-143.36;nan
39209;BME280;24929;51.982;4.664;2022-11-20T08:28:57;77862.38;;;-143.36;nan
39209;BME280;24929;51.982;4.664;2022-11-20T08:31:24;77824.25;;;-143.36;nan
39209;BME280;24929;51.982;4.664;2022-11-20T08:33:50;77832.25;;;-143.36;nan
39209;BME280;24929;51.982;4.664;2022-11-20T08:36:16;77828.25;;;-143.36;nan
39209;BME280;24929;51.982;4.664;2022-11-20T08:38:41;77832.25;;;-143.36;nan
39209;BME280;24929;51.982;4.664;2022-11-20T08:41:07;77816.22;;;-143.36;nan
39209;BME280;24929;51.982;4.664;2022-11-20T08:43:59;77709.81;;;-143.36;nan
39209;BME280;24929;51.982;4.664;2022-11-20T08:46:26;77758.00;;;-143.36;nan
39209;BME280;24929;51.982;4.664;2022-11-20T08:48:52;77790.13;;;-143.36;nan
39209;BME280;24929;51.982;4.664;2022-11-20T08:51:19;77786.09;;;-143.36;nan
39209;BME280;24929;51.982;4.664;2022-11-20T08:53:45;77776.06;;;-143.36;nan
39209;BME280;24929;51.982;4.664;2022-11-20T08:56:11;77806.16;;;-143.36;nan
39209;BME280;24929;51.982;4.664;2022-11-20T08:58:37;77784.09;;;-143.36;nan
39209;BME280;24929;51.982;4.664;2022-11-20T09:01:03;77816.22;;;-143.36;nan
39209;BME280;24929;51.982;4.664;2022-11-20T09:03:28;77758.00;;;-143.36;nan
39209;BME280;24929;51.982;4.664;2022-11-20T09:06:03;77715.84;;;-143.36;nan
39209;BME280;24929;51.982;4.664;2022-11-20T09:08:29;77756.00;;;-143.36;nan
39209;BME280;24929;51.982;4.664;2022-11-20T09:10:56;77743.94;;;-143.36;nan
39209;BME280;24929;51.982;4.664;2022-11-20T09:13:22;77717.84;;;-143.36;nan
39209;BME280;24929;51.982;4.664;2022-11-20T09:15:55;77687.75;;;-143.36;nan
39209;BME280;24929;51.982;4.664;2022-11-20T09:18:21;77733.91;;;-143.36;nan
39209;BME280;24929;51.982;4.664;2022-11-20T09:20:47;77735.91;;;-143.36;nan
39209;BME280;24929;51.982;4.664;2022-11-20T09:23:13;77681.72;;;-143.36;nan
39209;BME280;24929;51.982;4.664;2022-11-20T09:25:38;77699.78;;;-143.36;nan
39209;BME280;24929;51.982;4.664;2022-11-20T09:28:03;77661.66;;;-143.36;nan
39209;BME280;24929;51.982;4.664;2022-11-20T09:30:29;77719.84;;;-143.36;nan
39209;BME280;24929;51.982;4.664;2022-11-20T09:32:56;77681.72;;;-143.36;nan
39209;BME280;24929;51.982;4.664;2022-11-20T09:35:21;77643.56;;;-143.36;nan
39209;BME280;24929;51.982;4.664;2022-11-20T09:37:46;77623.50;;;-143.36;nan
39209;BME280;24929;51.982;4.664;2022-11-20T09:42:47;77561.28;;;-143.36;nan
39209;BME280;24929;51.982;4.664;2022-11-20T09:51:59;77617.47;;;-143.36;nan
39209;BME280;24929;51.982;4.664;2022-11-20T09:54:31;77561.28;;;-143.36;nan
39209;BME280;24929;51.982;4.664;2022-11-20T09:57:15;77519.13;;;-143.36;nan
39209;BME280;24929;51.982;4.664;2022-11-20T09:59:43;77583.34;;;-143.36;nan
39209;BME280;24929;51.982;4.664;2022-11-20T10:05:06;77515.13;;;-143.36;nan
39209;BME280;24929;51.982;4.664;2022-11-20T10:19:46;77452.88;;;-143.36;nan
39209;BME280;24929;51.982;4.664;2022-11-20T10:22:21;77527.16;;;-143.36;nan
39209;BME280;24929;51.982;4.664;2022-11-20T10:32:40;77464.94;;;-143.36;nan
39209;BME280;24929;51.982;4.664;2022-11-20T10:38:39;77390.66;;;-143.36;nan
39209;BME280;24929;51.982;4.664;2022-11-20T10:41:06;77450.88;;;-143.36;nan
39209;BME280;24929;51.982;4.664;2022-11-20T10:46:36;77398.69;;;-143.36;nan
39209;BME280;24929;51.982;4.664;2022-11-20T10:49:09;77444.88;;;-143.36;nan
39209;BME280;24929;51.982;4.664;2022-11-20T10:57:17;77342.50;;;-143.36;nan
39209;BME280;24929;51.982;4.664;2022-11-20T11:00:06;77362.56;;;-143.36;nan
39209;BME280;24929;51.982;4.664;2022-11-20T11:02:35;77362.56;;;-143.36;nan
39209;BME280;24929;51.982;4.664;2022-11-20T11:05:38;77386.66;;;-143.36;nan
39209;BME280;24929;51.982;4.664;2022-11-20T11:08:03;77372.59;;;-143.36;nan
39209;BME280;24929;51.982;4.664;2022-11-20T11:10:46;77328.44;;;-143.36;nan
39209;BME280;24929;51.982;4.664;2022-11-20T11:13:27;77350.53;;;-143.36;nan
39209;BME280;24929;51.982;4.664;2022-11-20T11:15:53;77368.59;;;-143.36;nan
39209;BME280;24929;51.982;4.664;2022-11-20T11:18:37;77298.34;;;-143.36;nan
39209;BME280;24929;51.982;4.664;2022-11-20T11:21:04;77280.28;;;-143.36;nan
39209;BME280;24929;51.982;4.664;2022-11-20T11:23:36;77272.25;;;-143.36;nan
39209;BME280;24929;51.982;4.664;2022-11-20T11:26:05;77300.34;;;-143.36;nan
39209;BME280;24929;51.982;4.664;2022-11-20T11:28:31;77314.41;;;-143.36;nan
39209;BME280;24929;51.982;4.664;2022-11-20T11:30:56;77302.34;;;-143.36;nan
39209;BME280;24929;51.982;4.664;2022-11-20T11:33:30;77284.28;;;-143.36;nan
39209;BME280;24929;51.982;4.664;2022-11-20T11:36:00;77340.50;;;-143.36;nan
39209;BME280;24929;51.982;4.664;2022-11-20T11:38:30;77260.22;;;-143.36;nan
39209;BME280;24929;51.982;4.664;2022-11-20T11:40:58;77304.38;;;-143.36;nan
39209;BME280;24929;51.982;4.664;2022-11-20T11:43:26;77302.34;;;-143.36;nan
39209;BME280;24929;51.982;4.664;2022-11-20T11:49:14;77161.84;;;-143.36;nan
39209;BME280;24929;51.982;4.664;2022-11-20T11:52:04;77125.72;;;-143.36;nan
39209;BME280;24929;51.982;4.664;2022-11-20T11:54:41;77151.81;;;-143.36;nan
39209;BME280;24929;51.982;4.664;2022-11-20T11:57:17;77109.69;;;-143.36;nan
39209;BME280;24929;51.982;4.664;2022-11-20T12:00:12;77125.72;;;-143.36;nan
39209;BME280;24929;51.982;4.664;2022-11-20T12:05:29;77113.69;;;-143.36;nan
39209;BME280;24929;51.982;4.664;2022-11-20T12:08:43;77117.72;;;-143.36;nan
39209;BME280;24929;51.982;4.664;2022-11-20T12:16:19;77113.69;;;-143.36;nan
39209;BME280;24929;51.982;4.664;2022-11-20T12:18:48;77073.56;;;-143.36;nan
39209;BME280;24929;51.982;4.664;2022-11-20T12:24:10;77137.78;;;-143.36;nan
39209;BME280;24929;51.982;4.664;2022-11-20T12:26:48;77177.91;;;-143.36;nan
39209;BME280;24929;51.982;4.664;2022-11-20T12:30:14;77093.63;;;-143.36;nan
39209;BME280;24929;51.982;4.664;2022-11-20T12:43:31;77111.69;;;-143.36;nan
39209;BME280;24929;51.982;4.664;2022-11-20T12:46:41;77039.44;;;-143.36;nan
39209;BME280;24929;51.982;4.664;2022-11-20T12:54:25;77051.47;;;-143.36;nan
39209;BME280;24929;51.982;4.664;2022-11-20T13:00:14;76979.22;;;-143.36;nan
39209;BME280;24929;51.982;4.664;2022-11-20T13:05:35;76989.25;;;-143.36;nan
39209;BME280;24929;51.982;4.664;2022-11-20T13:08:03;77035.41;;;-143.36;nan
39209;BME280;24929;51.982;4.664;2022-11-20T13:10:37;77063.50;;;-143.36;nan
39209;BME280;24929;51.982;4.664;2022-11-20T13:13:17;77025.38;;;-143.36;nan
39209;BME280;24929;51.982;4.664;2022-11-20T13:18:33;76983.25;;;-143.36;nan
39209;BME280;24929;51.982;4.664;2022-11-20T13:21:01;77039.44;;;-143.36;nan
39209;BME280;24929;51.982;4.664;2022-11-20T13:23:27;77009.31;;;-143.36;nan
39209;BME280;24929;51.982;4.664;2022-11-20T13:26:16;76997.28;;;-143.36;nan
39209;BME280;24929;51.982;4.664;2022-11-20T13:28:41;77029.41;;;-143.36;nan
39209;BME280;24929;51.982;4.664;2022-11-20T13:31:30;76969.19;;;-143.36;nan
39209;BME280;24929;51.982;4.664;2022-11-20T13:33:57;77011.34;;;-143.36;nan
39209;BME280;24929;51.982;4.664;2022-11-20T13:36:27;76995.28;;;-143.36;nan
39209;BME280;24929;51.982;4.664;2022-11-20T13:38:54;76957.16;;;-143.36;nan
39209;BME280;24929;51.982;4.664;2022-11-20T13:41:34;76987.25;;;-143.36;nan
39209;BME280;24929;51.982;4.664;2022-11-20T13:46:37;77007.31;;;-143.36;nan
39209;BME280;24929;51.982;4.664;2022-11-20T13:49:08;77077.56;;;-143.36;nan
39209;BME280;24929;51.982;4.664;2022-11-20T13:51:43;77001.31;;;-143.36;nan
39209;BME280;24929;51.982;4.664;2022-11-20T14:01:50;77009.31;;;-143.36;nan
39209;BME280;24929;51.982;4.664;2022-11-20T14:04:19;76911.00;;;-143.36;nan
39209;BME280;24929;51.982;4.664;2022-11-20T14:06:51;76949.13;;;-143.36;nan
39209;BME280;24929;51.982;4.664;2022-11-20T14:09:30;76888.91;;;-143.36;nan
39209;BME280;24929;51.982;4.664;2022-11-20T14:11:56;76929.06;;;-143.36;nan
39209;BME280;24929;51.982;4.664;2022-11-20T14:14:29;76858.81;;;-143.36;nan
39209;BME280;24929;51.982;4.664;2022-11-20T14:17:18;76870.84;;;-143.36;nan
39209;BME280;24929;51.982;4.664;2022-11-20T14:19:45;76886.91;;;-143.36;nan
39209;BME280;24929;51.982;4.664;2022-11-20T14:24:47;76888.91;;;-143.36;nan
39209;BME280;24929;51.982;4.664;2022-11-20T14:27:16;76872.84;;;-143.36;nan
39209;BME280;24929;51.982;4.664;2022-11-20T14:29:44;76876.88;;;-143.36;nan
39209;BME280;24929;51.982;4.664;2022-11-20T14:32:10;76894.94;;;-143.36;nan
39209;BME280;24929;51.982;4.664;2022-11-20T14:34:39;76858.81;;;-143.36;nan
39209;BME280;24929;51.982;4.664;2022-11-20T14:37:20;76848.78;;;-143.36;nan
39209;BME280;24929;51.982;4.664;2022-11-20T14:39:54;76844.75;;;-143.36;nan
39209;BME280;24929;51.982;4.664;2022-11-20T14:42:25;76850.78;;;-143.36;nan
39209;BME280;24929;51.982;4.664;2022-11-20T14:44:54;76868.84;;;-143.36;nan
39209;BME280;24929;51.982;4.664;2022-11-20T14:47:23;76842.75;;;-143.36;nan
39209;BME280;24929;51.982;4.664;2022-11-20T14:49:51;76870.84;;;-143.36;nan
39209;BME280;24929;51.982;4.664;2022-11-20T14:54:50;76842.75;;;-143.36;nan
39209;BME280;24929;51.982;4.664;2022-11-20T14:57:25;76838.75;;;-143.36;nan
39209;BME280;24929;51.982;4.664;2022-11-20T14:59:51;76868.84;;;-143.36;nan
39209;BME280;24929;51.982;4.664;2022-11-20T15:02:17;76892.94;;;-143.36;nan
39209;BME280;24929;51.982;4.664;2022-11-20T15:04:49;76806.63;;;-143.36;nan
39209;BME280;24929;51.982;4.664;2022-11-20T15:07:25;76844.75;;;-143.36;nan
39209;BME280;24929;51.982;4.664;2022-11-20T15:10:06;76854.78;;;-143.36;nan
39209;BME280;24929;51.982;4.664;2022-11-20T15:12:34;76818.66;;;-143.36;nan
39209;BME280;24929;51.982;4.664;2022-11-20T15:15:01;76818.66;;;-143.36;nan